createdAt,value
2022-10-09T00:01:14.683Z,100.00
2022-10-09T00:03:43.583Z,100.00
2022-10-09T00:06:13.091Z,100.00
2022-10-09T00:08:40.827Z,100.00
2022-10-09T00:11:09.175Z,100.00
2022-10-09T00:13:36.878Z,100.00
2022-10-09T00:16:05.467Z,100.00
2022-10-09T00:18:32.155Z,100.00
2022-10-09T00:20:59.020Z,100.00
2022-10-09T00:23:25.708Z,100.00
2022-10-09T00:25:55.274Z,100.00
2022-10-09T00:28:24.135Z,100.00
2022-10-09T00:30:50.722Z,100.00
2022-10-09T00:33:17.418Z,100.00
2022-10-09T00:35:44.086Z,100.00
2022-10-09T00:38:10.874Z,100.00
2022-10-09T00:40:38.234Z,99.96
2022-10-09T00:43:13.487Z,100.00
2022-10-09T00:45:44.738Z,100.00
2022-10-09T00:48:12.358Z,99.92
2022-10-09T00:50:44.639Z,100.00
2022-10-09T00:53:15.086Z,100.00
2022-10-09T00:55:43.144Z,100.00
2022-10-09T00:58:12.913Z,100.00
2022-10-09T01:00:40.162Z,100.00
2022-10-09T01:03:06.731Z,100.00
2022-10-09T01:05:47.164Z,100.00
2022-10-09T01:08:25.519Z,100.00
2022-10-09T01:11:04.250Z,100.00
2022-10-09T01:13:57.718Z,100.00
2022-10-09T01:16:29.375Z,100.00
2022-10-09T01:19:01.883Z,100.00
2022-10-09T01:21:37.356Z,100.00
2022-10-09T01:24:19.949Z,100.00
2022-10-09T01:26:58.006Z,100.00
2022-10-09T01:29:30.566Z,100.00
2022-10-09T01:31:59.070Z,100.00
2022-10-09T01:34:27.585Z,100.00
2022-10-09T01:36:56.581Z,100.00
2022-10-09T01:39:25.152Z,100.00
2022-10-09T01:41:53.539Z,100.00
2022-10-09T01:44:22.924Z,100.00
2022-10-09T01:46:49.824Z,100.00
2022-10-09T01:49:37.962Z,100.00
2022-10-09T01:52:14.148Z,100.00
2022-10-09T01:55:03.132Z,100.00
2022-10-09T01:57:39.724Z,100.00
2022-10-09T02:00:10.183Z,100.00
2022-10-09T02:02:42.248Z,99.06
2022-10-09T02:05:17.541Z,97.95
2022-10-09T02:07:44.259Z,97.45
2022-10-09T02:10:11.517Z,97.99
2022-10-09T02:12:46.901Z,98.36
2022-10-09T02:15:13.995Z,99.13
2022-10-09T02:17:45.779Z,99.94
2022-10-09T02:20:19.641Z,98.89
2022-10-09T02:22:47.023Z,99.48
2022-10-09T02:25:14.669Z,99.01
2022-10-09T02:27:41.577Z,98.91
2022-10-09T02:30:09.818Z,99.45
2022-10-09T02:32:36.462Z,99.45
2022-10-09T02:35:03.256Z,100.00
2022-10-09T02:37:29.791Z,99.80
2022-10-09T02:39:56.194Z,99.95
2022-10-09T02:42:22.758Z,100.00
2022-10-09T02:44:49.182Z,99.99
2022-10-09T02:47:15.735Z,99.90
2022-10-09T02:49:42.207Z,99.11
2022-10-09T02:52:08.864Z,99.51
2022-10-09T02:54:35.378Z,98.93
2022-10-09T02:57:01.825Z,99.09
2022-10-09T02:59:28.367Z,99.88
2022-10-09T03:01:55.862Z,100.00
2022-10-09T03:04:22.514Z,100.00
2022-10-09T03:06:48.922Z,100.00
2022-10-09T03:09:15.484Z,100.00
2022-10-09T03:11:41.900Z,100.00
2022-10-09T03:14:09.581Z,100.00
2022-10-09T03:16:36.317Z,100.00
2022-10-09T03:19:03.114Z,100.00
2022-10-09T03:21:29.792Z,100.00
2022-10-09T03:23:56.870Z,100.00
2022-10-09T03:26:25.892Z,100.00
2022-10-09T03:28:54.305Z,100.00
2022-10-09T03:31:46.969Z,100.00
2022-10-09T03:34:11.191Z,100.00
2022-10-09T03:36:37.795Z,100.00
2022-10-09T03:39:04.280Z,100.00
2022-10-09T03:41:30.773Z,100.00
2022-10-09T03:43:57.196Z,100.00
2022-10-09T03:46:23.766Z,100.00
2022-10-09T03:48:50.366Z,100.00
2022-10-09T03:51:16.874Z,100.00
2022-10-09T03:53:43.364Z,100.00
2022-10-09T03:56:09.870Z,100.00
2022-10-09T03:58:36.685Z,100.00
2022-10-09T04:01:03.263Z,100.00
2022-10-09T04:03:29.926Z,100.00
2022-10-09T04:05:56.544Z,99.97
2022-10-09T04:08:23.000Z,99.94
2022-10-09T04:10:56.937Z,100.00
2022-10-09T04:13:23.504Z,100.00
2022-10-09T04:15:50.995Z,100.00
2022-10-09T04:18:17.751Z,100.00
2022-10-09T04:20:54.813Z,100.00
2022-10-09T04:23:22.754Z,100.00
2022-10-09T04:25:53.845Z,100.00
2022-10-09T04:28:20.586Z,100.00
2022-10-09T04:30:47.109Z,100.00
2022-10-09T04:33:13.573Z,100.00
2022-10-09T04:35:46.916Z,100.00
2022-10-09T04:38:13.486Z,100.00
2022-10-09T04:40:39.982Z,99.65
2022-10-09T04:43:06.545Z,99.77
2022-10-09T04:45:33.036Z,100.00
2022-10-09T04:47:59.611Z,100.00
2022-10-09T04:50:26.059Z,100.00
2022-10-09T04:52:58.573Z,100.00
2022-10-09T04:55:25.546Z,100.00
2022-10-09T04:57:52.084Z,99.69
2022-10-09T05:00:18.536Z,98.56
2022-10-09T05:02:45.038Z,98.83
2022-10-09T05:05:11.496Z,98.44
2022-10-09T05:07:38.633Z,98.91
2022-10-09T05:10:06.572Z,98.39
2022-10-09T05:12:33.101Z,98.52
2022-10-09T05:14:59.491Z,100.00
2022-10-09T05:17:26.075Z,100.00
2022-10-09T05:19:52.472Z,100.00
2022-10-09T05:22:19.032Z,100.00
2022-10-09T05:24:45.717Z,100.00
2022-10-09T05:27:12.213Z,100.00
2022-10-09T05:29:38.664Z,100.00
2022-10-09T05:32:05.271Z,100.00
2022-10-09T05:34:33.987Z,99.84
2022-10-09T05:37:00.563Z,98.95
2022-10-09T05:39:26.965Z,99.42
2022-10-09T05:41:53.508Z,98.04
2022-10-09T05:44:19.988Z,99.60
2022-10-09T05:46:46.506Z,100.00
2022-10-09T05:49:13.007Z,100.00
2022-10-09T05:51:42.760Z,100.00
2022-10-09T05:54:15.039Z,100.00
2022-10-09T05:56:42.344Z,100.00
2022-10-09T05:59:11.569Z,100.00
2022-10-09T06:01:40.946Z,100.00
2022-10-09T06:04:10.932Z,100.00
2022-10-09T06:06:39.371Z,100.00
2022-10-09T06:09:07.774Z,100.00
2022-10-09T06:11:37.279Z,100.00
2022-10-09T06:14:05.619Z,100.00
2022-10-09T06:16:35.381Z,100.00
2022-10-09T06:19:03.329Z,100.00
2022-10-09T06:21:30.083Z,100.00
2022-10-09T06:23:59.618Z,100.00
2022-10-09T06:26:29.301Z,100.00
2022-10-09T06:29:00.778Z,100.00
2022-10-09T06:31:29.841Z,100.00
2022-10-09T06:33:59.129Z,99.15
2022-10-09T06:36:28.705Z,100.00
2022-10-09T06:38:55.664Z,100.00
2022-10-09T06:41:24.323Z,99.34
2022-10-09T06:43:54.311Z,98.89
2022-10-09T06:46:23.015Z,100.00
2022-10-09T06:48:49.690Z,100.00
2022-10-09T06:51:17.241Z,100.00
2022-10-09T06:53:46.907Z,98.40
2022-10-09T06:56:14.784Z,99.90
2022-10-09T06:58:42.155Z,100.00
2022-10-09T07:01:13.142Z,99.09
2022-10-09T07:03:41.875Z,100.00
2022-10-09T07:06:12.608Z,98.93
2022-10-09T07:08:41.237Z,100.00
2022-10-09T07:11:10.232Z,99.70
2022-10-09T07:13:37.713Z,100.00
2022-10-09T07:16:05.114Z,100.00
2022-10-09T07:18:34.198Z,99.42
2022-10-09T07:21:02.309Z,100.00
2022-10-09T07:23:30.535Z,100.00
2022-10-09T07:25:58.377Z,99.28
2022-10-09T07:28:26.952Z,98.20
2022-10-09T07:30:53.934Z,97.59
2022-10-09T07:33:20.473Z,98.42
2022-10-09T07:35:56.835Z,98.63
2022-10-09T07:38:27.323Z,100.00
2022-10-09T07:40:54.766Z,98.42
2022-10-09T07:43:22.334Z,97.83
2022-10-09T07:45:48.885Z,98.84
2022-10-09T07:48:15.559Z,99.05
2022-10-09T07:50:41.966Z,97.82
2022-10-09T07:53:08.837Z,97.32
2022-10-09T07:55:36.189Z,97.00
2022-10-09T07:58:02.853Z,95.55
2022-10-09T08:00:29.421Z,95.86
2022-10-09T08:02:55.929Z,96.26
2022-10-09T08:05:22.576Z,94.99
2022-10-09T08:07:49.212Z,93.50
2022-10-09T08:10:15.800Z,94.71
2022-10-09T08:12:42.222Z,97.88
2022-10-09T08:15:09.292Z,97.02
2022-10-09T08:17:35.866Z,98.12
2022-10-09T08:20:02.299Z,96.02
2022-10-09T08:22:28.844Z,95.60
2022-10-09T08:24:55.270Z,95.90
2022-10-09T08:27:21.785Z,95.30
2022-10-09T08:29:48.285Z,94.99
2022-10-09T08:32:14.996Z,94.15
2022-10-09T08:34:41.536Z,96.54
2022-10-09T08:37:07.946Z,97.69
2022-10-09T08:39:34.449Z,96.81
2022-10-09T08:42:04.113Z,97.50
2022-10-09T08:44:39.546Z,93.27
2022-10-09T08:47:13.968Z,93.67
2022-10-09T08:49:47.317Z,93.11
2022-10-09T08:52:38.224Z,93.17
2022-10-09T08:55:24.548Z,91.93
2022-10-09T08:57:54.873Z,93.35
2022-10-09T09:00:24.420Z,91.66
2022-10-09T09:03:13.937Z,91.59
2022-10-09T09:05:51.943Z,91.22
2022-10-09T09:09:05.279Z,90.54
2022-10-09T09:11:44.086Z,89.17
2022-10-09T09:14:40.194Z,89.27
2022-10-09T09:17:26.956Z,89.57
2022-10-09T09:20:24.644Z,88.61
2022-10-09T09:22:52.204Z,87.81
2022-10-09T09:25:34.993Z,87.30
2022-10-09T09:28:33.264Z,85.58
2022-10-09T09:31:15.878Z,85.33
2022-10-09T09:34:13.914Z,84.12
2022-10-09T09:36:54.129Z,84.18
2022-10-09T09:42:10.253Z,82.00
2022-10-09T09:44:44.952Z,80.98
2022-10-09T09:47:22.415Z,81.91
2022-10-09T09:50:00.534Z,81.24
2022-10-09T09:52:34.486Z,80.00
2022-10-09T09:55:01.222Z,79.41
2022-10-09T09:57:33.105Z,78.66
2022-10-09T10:00:10.253Z,78.31
2022-10-09T10:02:36.635Z,77.44
2022-10-09T10:05:17.350Z,76.66
2022-10-09T10:07:44.283Z,75.68
2022-10-09T10:10:27.900Z,74.94
2022-10-09T10:12:59.943Z,74.33
2022-10-09T10:33:19.224Z,73.65
2022-10-09T10:35:51.796Z,71.71
2022-10-09T10:38:33.591Z,71.41
2022-10-09T10:41:14.255Z,69.62
2022-10-09T10:43:46.329Z,69.83
2022-10-09T10:46:23.607Z,69.70
2022-10-09T10:48:51.610Z,70.52
2022-10-09T10:51:35.469Z,69.98
2022-10-09T10:54:38.178Z,68.37
2022-10-09T10:57:42.447Z,66.57
2022-10-09T11:00:13.965Z,64.49
2022-10-09T11:03:03.228Z,65.74
2022-10-09T11:05:44.835Z,67.00
2022-10-09T11:08:47.514Z,66.45
2022-10-09T11:11:17.012Z,66.79
2022-10-09T11:13:58.370Z,65.70
2022-10-09T11:16:37.186Z,66.53
2022-10-09T11:19:22.312Z,62.94
2022-10-09T11:22:02.518Z,63.98
2022-10-09T11:24:45.178Z,62.66
2022-10-09T11:27:41.658Z,62.19
2022-10-09T11:30:16.775Z,60.73
2022-10-09T11:33:05.211Z,57.51
2022-10-09T11:35:40.336Z,61.16
2022-10-09T11:38:25.578Z,60.37
2022-10-09T11:40:53.376Z,61.30
2022-10-09T11:43:25.978Z,58.77
2022-10-09T11:46:01.433Z,59.53
2022-10-09T11:48:51.906Z,60.72
2022-10-09T11:51:38.125Z,59.86
2022-10-09T11:54:11.050Z,59.28
2022-10-09T11:56:37.533Z,59.60
2022-10-09T11:59:06.569Z,57.24
2022-10-09T12:01:37.067Z,58.31
2022-10-09T12:04:08.597Z,58.59
2022-10-09T12:06:50.946Z,58.88
2022-10-09T12:09:32.038Z,59.20
2022-10-09T12:12:09.203Z,59.56
2022-10-09T12:14:37.833Z,58.93
2022-10-09T12:17:45.873Z,58.83
2022-10-09T12:20:20.258Z,59.19
2022-10-09T12:23:13.851Z,58.65
2022-10-09T12:25:43.120Z,58.97
2022-10-09T12:28:34.465Z,59.37
2022-10-09T12:31:05.075Z,59.05
2022-10-09T12:33:45.730Z,58.72
2022-10-09T12:36:15.179Z,58.68
2022-10-09T12:38:42.874Z,59.24
2022-10-09T12:41:20.901Z,60.00
2022-10-09T12:43:50.580Z,58.55
2022-10-09T12:46:28.325Z,59.33
2022-10-09T12:48:55.492Z,58.25
2022-10-09T12:51:28.154Z,58.25
2022-10-09T12:53:55.278Z,58.24
2022-10-09T12:56:32.524Z,59.04
2022-10-09T12:59:02.092Z,58.65
2022-10-09T13:01:29.146Z,59.31
2022-10-09T13:04:01.006Z,57.84
2022-10-09T13:06:38.094Z,57.23
2022-10-09T13:09:05.932Z,57.70
2022-10-09T13:11:38.091Z,58.36
2022-10-09T13:14:04.996Z,59.38
2022-10-09T13:16:42.827Z,59.33
2022-10-09T13:19:33.410Z,57.50
2022-10-09T13:22:19.971Z,59.98
2022-10-09T13:24:49.699Z,60.02
2022-10-09T13:27:16.410Z,60.00
2022-10-09T13:29:43.204Z,60.97
2022-10-09T13:32:13.096Z,60.74
2022-10-09T13:34:39.880Z,61.36
2022-10-09T13:37:06.387Z,59.81
2022-10-09T13:39:33.780Z,60.49
2022-10-09T13:42:02.001Z,60.09
2022-10-09T13:44:28.547Z,58.94
2022-10-09T13:46:55.023Z,60.66
2022-10-09T13:49:21.792Z,60.15
2022-10-09T13:51:48.357Z,59.91
2022-10-09T13:54:14.838Z,59.38
2022-10-09T13:56:41.287Z,58.47
2022-10-09T13:59:07.837Z,59.00
2022-10-09T14:01:34.243Z,60.80
2022-10-09T14:04:00.819Z,59.68
2022-10-09T14:06:27.826Z,59.81
2022-10-09T14:08:54.331Z,60.16
2022-10-09T14:11:20.827Z,61.30
2022-10-09T14:13:47.191Z,61.44
2022-10-09T14:16:14.251Z,61.12
2022-10-09T14:18:40.705Z,60.09
2022-10-09T14:21:13.885Z,61.75
2022-10-09T14:23:41.667Z,61.99
2022-10-09T14:26:08.126Z,60.72
2022-10-09T14:28:34.700Z,62.08
2022-10-09T14:31:05.922Z,61.11
2022-10-09T14:33:32.518Z,61.31
2022-10-09T14:36:05.868Z,62.36
2022-10-09T14:38:32.398Z,62.62
2022-10-09T14:40:59.027Z,61.49
2022-10-09T14:43:25.537Z,62.69
2022-10-09T14:46:01.878Z,62.83
2022-10-09T14:48:28.378Z,63.32
2022-10-09T14:50:54.779Z,63.98
2022-10-09T14:53:21.266Z,64.40
2022-10-09T14:55:47.727Z,63.74
2022-10-09T14:58:14.173Z,64.10
2022-10-09T15:00:46.693Z,64.33
2022-10-09T15:03:13.299Z,64.19
2022-10-09T15:05:39.684Z,63.65
2022-10-09T15:08:06.156Z,64.54
2022-10-09T15:10:34.425Z,65.29
2022-10-09T15:13:00.865Z,64.58
2022-10-09T15:15:31.830Z,65.99
2022-10-09T15:17:59.255Z,66.51
2022-10-09T15:20:25.747Z,65.78
2022-10-09T15:22:52.199Z,66.48
2022-10-09T15:25:18.603Z,66.42
2022-10-09T15:27:45.169Z,67.57
2022-10-09T15:30:11.707Z,67.40
2022-10-09T15:32:38.362Z,68.25
2022-10-09T15:35:05.309Z,67.56
2022-10-09T15:37:31.855Z,67.42
2022-10-09T15:39:58.283Z,68.76
2022-10-09T15:42:24.826Z,69.02
2022-10-09T15:44:51.502Z,68.66
2022-10-09T15:47:27.070Z,67.69
2022-10-09T15:50:04.888Z,67.68
2022-10-09T15:52:31.352Z,69.13
2022-10-09T15:54:57.965Z,69.08
2022-10-09T15:57:24.451Z,69.18
2022-10-09T15:59:50.948Z,69.42
2022-10-09T16:02:17.425Z,69.75
2022-10-09T16:04:43.930Z,69.71
2022-10-09T16:07:10.313Z,71.21
2022-10-09T16:09:37.138Z,69.75
2022-10-09T16:12:03.950Z,70.59
2022-10-09T16:14:31.689Z,71.46
2022-10-09T16:16:58.955Z,71.43
2022-10-09T16:19:25.467Z,71.89
2022-10-09T16:21:52.337Z,71.68
2022-10-09T16:24:18.943Z,71.73
2022-10-09T16:26:45.425Z,72.13
2022-10-09T16:29:11.903Z,72.18
2022-10-09T16:31:38.492Z,72.88
2022-10-09T16:34:05.814Z,73.22
2022-10-09T16:36:32.934Z,72.90
2022-10-09T16:38:59.917Z,72.83
2022-10-09T16:41:26.761Z,73.66
2022-10-09T16:43:55.683Z,75.08
2022-10-09T16:46:25.367Z,75.80
2022-10-09T16:48:53.293Z,75.85
2022-10-09T16:51:23.561Z,76.22
2022-10-09T16:53:54.813Z,76.71
2022-10-09T16:56:24.844Z,76.27
2022-10-09T16:58:56.146Z,76.03
2022-10-09T17:01:23.459Z,76.51
2022-10-09T17:03:49.915Z,76.60
2022-10-09T17:06:23.485Z,75.88
2022-10-09T17:08:51.121Z,76.55
2022-10-09T17:11:18.125Z,76.94
2022-10-09T17:13:45.628Z,76.81
2022-10-09T17:16:18.199Z,77.23
2022-10-09T17:18:45.945Z,77.65
2022-10-09T17:21:13.825Z,78.05
2022-10-09T17:23:41.070Z,78.28
2022-10-09T17:26:18.505Z,78.42
2022-10-09T17:28:46.467Z,78.94
2022-10-09T17:31:16.033Z,79.20
2022-10-09T17:33:45.905Z,79.03
2022-10-09T17:36:14.262Z,78.14
2022-10-09T17:38:40.750Z,77.66
2022-10-09T17:41:08.939Z,78.46
2022-10-09T17:43:35.394Z,77.88
2022-10-09T17:46:01.987Z,78.40
2022-10-09T17:48:29.129Z,78.90
2022-10-09T17:50:58.118Z,79.48
2022-10-09T17:53:24.809Z,79.91
2022-10-09T17:55:53.530Z,80.29
2022-10-09T17:58:21.639Z,81.08
2022-10-09T18:00:49.155Z,81.61
2022-10-09T18:03:16.945Z,82.17
2022-10-09T18:05:45.185Z,82.03
2022-10-09T18:08:12.744Z,81.46
2022-10-09T18:10:39.432Z,81.16
2022-10-09T18:13:07.571Z,81.18
2022-10-09T18:15:37.865Z,80.87
2022-10-09T18:18:05.007Z,81.36
2022-10-09T18:20:34.599Z,81.11
2022-10-09T18:23:01.089Z,81.80
2022-10-09T18:25:27.518Z,83.37
2022-10-09T18:27:54.405Z,83.41
2022-10-09T18:30:20.893Z,83.50
2022-10-09T18:32:48.598Z,82.44
2022-10-09T18:35:15.414Z,81.57
2022-10-09T18:37:41.911Z,80.82
2022-10-09T18:40:08.849Z,80.08
2022-10-09T18:42:35.719Z,80.68
2022-10-09T18:45:03.300Z,79.39
2022-10-09T18:47:34.962Z,80.19
2022-10-09T18:50:06.609Z,80.49
2022-10-09T18:52:34.369Z,80.97
2022-10-09T18:55:02.473Z,81.44
2022-10-09T18:57:29.390Z,82.35
2022-10-09T18:59:57.438Z,82.64
2022-10-09T19:02:26.539Z,82.98
2022-10-09T19:04:54.568Z,82.82
2022-10-09T19:07:21.262Z,83.29
2022-10-09T19:09:55.015Z,82.98
2022-10-09T19:12:24.575Z,84.06
2022-10-09T19:14:51.661Z,84.29
2022-10-09T19:17:18.530Z,84.37
2022-10-09T19:19:45.177Z,84.49
2022-10-09T19:22:15.423Z,84.45
2022-10-09T19:24:44.259Z,84.68
2022-10-09T19:27:11.125Z,84.65
2022-10-09T19:29:37.753Z,85.01
2022-10-09T19:32:04.151Z,84.84
2022-10-09T19:34:30.852Z,85.59
2022-10-09T19:36:57.534Z,85.77
2022-10-09T19:39:24.043Z,85.61
2022-10-09T19:41:51.134Z,85.55
2022-10-09T19:44:17.986Z,85.47
2022-10-09T19:46:45.238Z,85.94
2022-10-09T19:49:12.117Z,85.63
2022-10-09T19:51:38.633Z,85.24
2022-10-09T19:54:07.684Z,85.19
2022-10-09T19:56:35.130Z,85.32
2022-10-09T19:59:06.379Z,84.95
2022-10-09T20:01:35.306Z,85.58
2022-10-09T20:04:05.293Z,85.74
2022-10-09T20:06:31.852Z,86.10
2022-10-09T20:08:58.362Z,86.36
2022-10-09T20:11:26.206Z,86.24
2022-10-09T20:13:56.060Z,86.60
2022-10-09T20:16:24.516Z,85.81
2022-10-09T20:18:51.270Z,86.08
2022-10-09T20:21:18.049Z,86.38
2022-10-09T20:23:44.610Z,86.43
2022-10-09T20:26:13.003Z,86.40
2022-10-09T20:28:39.934Z,86.52
2022-10-09T20:31:07.973Z,86.65
2022-10-09T20:33:35.753Z,86.68
2022-10-09T20:36:03.553Z,86.97
2022-10-09T20:38:30.010Z,86.70
2022-10-09T20:41:07.916Z,86.81
2022-10-09T20:43:35.574Z,86.94
2022-10-09T20:46:13.620Z,87.34
2022-10-09T20:48:43.973Z,87.35
2022-10-09T20:51:10.610Z,86.89
2022-10-09T20:53:36.984Z,87.44
2022-10-09T20:56:06.760Z,88.08
2022-10-09T20:58:35.126Z,87.94
2022-10-09T21:01:07.188Z,87.89
2022-10-09T21:03:35.605Z,87.51
2022-10-09T21:06:07.315Z,87.52
2022-10-09T21:08:34.726Z,88.56
2022-10-09T21:11:07.703Z,88.50
2022-10-09T21:13:35.239Z,88.65
2022-10-09T21:16:05.126Z,88.40
2022-10-09T21:18:31.643Z,89.25
2022-10-09T21:21:04.222Z,89.68
2022-10-09T21:23:30.794Z,89.50
2022-10-09T21:25:57.140Z,89.79
2022-10-09T21:28:24.498Z,90.04
2022-10-09T21:30:51.019Z,90.17
2022-10-09T21:33:18.081Z,90.03
2022-10-09T21:35:50.205Z,91.21
2022-10-09T21:38:19.673Z,91.19
2022-10-09T21:40:47.164Z,91.32
2022-10-09T21:43:13.789Z,91.41
2022-10-09T21:45:40.455Z,91.72
2022-10-09T21:48:07.221Z,92.03
2022-10-09T21:50:34.538Z,92.90
2022-10-09T21:53:01.027Z,92.51
2022-10-09T21:55:27.486Z,92.71
2022-10-09T21:57:54.618Z,93.08
2022-10-09T22:00:21.446Z,93.83
2022-10-09T22:18:06.210Z,96.32
2022-10-09T22:20:32.645Z,96.24
2022-10-09T22:22:59.228Z,96.58
2022-10-09T22:25:25.653Z,95.40
2022-10-09T22:27:52.183Z,95.88
2022-10-09T22:30:18.574Z,95.32
2022-10-09T22:32:45.073Z,94.50
2022-10-09T22:35:11.577Z,94.47
2022-10-09T22:37:38.115Z,95.16
2022-10-09T22:40:04.706Z,94.77
2022-10-09T22:42:31.243Z,94.57
2022-10-09T22:44:57.616Z,94.49
2022-10-09T22:47:24.042Z,95.03
2022-10-09T22:49:50.571Z,94.50
2022-10-09T22:52:17.038Z,93.44
2022-10-09T22:54:43.673Z,93.49
2022-10-09T22:57:10.042Z,93.17
2022-10-09T22:59:36.471Z,92.87
2022-10-09T23:02:03.076Z,93.35
2022-10-09T23:04:29.528Z,94.07
2022-10-09T23:06:58.098Z,94.03
2022-10-09T23:09:27.623Z,94.61
2022-10-09T23:11:54.704Z,93.85
2022-10-09T23:14:21.372Z,94.14
2022-10-09T23:16:48.154Z,94.12
2022-10-09T23:19:15.000Z,93.72
2022-10-09T23:21:43.689Z,93.75
2022-10-09T23:24:12.016Z,93.86
2022-10-09T23:26:38.588Z,94.27
2022-10-09T23:29:06.765Z,94.57
2022-10-09T23:31:33.755Z,94.29
2022-10-09T23:34:00.478Z,94.70
2022-10-09T23:36:28.881Z,94.14
2022-10-09T23:38:56.783Z,94.26
2022-10-09T23:41:25.252Z,95.39
2022-10-09T23:43:52.135Z,94.25
2022-10-09T23:46:21.166Z,94.86
2022-10-09T23:48:48.799Z,95.42
2022-10-09T23:51:16.121Z,95.25
2022-10-09T23:53:43.516Z,95.06
2022-10-09T23:56:25.297Z,94.82
2022-10-09T23:58:53.215Z,94.43
